Time;durP1;ratioP1;P1;durP2;ratioP2;P2;SDS_P1;SDS_P2;PMS_P1;PMS_P2;Temp;Humidity;BMP_temperature;BMP_pressure;BME280_temperature;BME280_humidity;BME280_pressure;Samples;Min_cycle;Max_cycle;Signal;HPM_P1;HPM_P2
2022/09/02 00:02:30;;;;;;;7.28;1.70;;;;;;;9.65;68.95;99112.56;4862598;29;20046;-90
2022/09/02 00:04:58;;;;;;;1.55;1.40;;;;;;;9.26;68.49;99050.53;4844672;29;20042;-88
2022/09/02 00:07:27;;;;;;;6.22;1.50;;;;;;;9.27;68.72;99055.69;4853554;29;20045;-90
2022/09/02 00:10:25;;;;;;;3.97;1.83;;;;;;;9.75;68.59;99128.69;4828031;29;20487;-90
2022/09/02 00:12:52;;;;;;;4.80;1.70;;;;;;;9.33;68.64;99070.78;4812027;29;20050;-89
2022/09/02 00:16:24;;;;;;;4.83;1.67;;;;;;;9.77;68.52;99125.66;4812835;29;20103;-88
2022/09/02 00:18:52;;;;;;;2.30;1.60;;;;;;;9.40;68.18;99073.91;4847865;29;20314;-88
2022/09/02 00:21:25;;;;;;;4.22;1.63;;;;;;;9.61;67.97;99109.66;4843713;29;20038;-89
2022/09/02 00:24:08;;;;;;;1.73;1.42;;;;;;;9.37;68.36;99074.53;4846562;29;20049;-91
2022/09/02 00:27:27;;;;;;;2.28;1.45;;;;;;;9.81;68.11;99126.66;4845328;29;20042;-89
2022/09/02 00:35:10;;;;;;;2.38;1.27;;;;;;;9.34;67.57;99066.16;4805769;29;20054;-90
2022/09/02 00:37:51;;;;;;;;;;;;;;;9.80;67.35;99127.75;4795058;29;20453;-91
2022/09/02 00:40:18;;;;;;;3.70;1.50;;;;;;;9.60;67.13;99097.13;4794296;29;19925;-90
2022/09/02 00:42:58;;;;;;;1.90;1.30;;;;;;;9.44;66.95;99067.78;4796002;29;20450;-90
2022/09/02 00:45:24;;;;;;;1.38;1.10;;;;;;;9.41;67.03;99070.06;4784778;29;20178;-88
2022/09/02 00:51:11;;;;;;;6.32;1.30;;;;;;;10.00;66.85;99123.66;4813568;29;20471;-91
2022/09/02 00:54:27;;;;;;;1.53;1.20;;;;;;;9.87;67.05;99122.66;4790875;29;20051;-91
2022/09/02 00:59:47;;;;;;;2.35;1.35;;;;;;;9.79;67.20;99129.66;4892486;23;19927;-91
2022/09/02 01:02:43;;;;;;;7.65;1.70;;;;;;;9.83;67.23;99121.66;4847112;29;20052;-90
2022/09/02 01:05:25;;;;;;;3.77;1.43;;;;;;;9.79;67.03;99128.88;4844888;29;20179;-90
2022/09/02 01:08:06;;;;;;;5.43;1.67;;;;;;;9.43;67.24;99058.00;4859501;29;20291;-91
2022/09/02 01:10:57;;;;;;;5.28;1.60;;;;;;;9.95;66.83;99126.56;4848485;29;20044;-90
2022/09/02 01:13:51;;;;;;;3.05;1.33;;;;;;;9.88;66.83;99121.53;4796499;29;20058;-90
2022/09/02 01:16:39;;;;;;;10.32;1.70;;;;;;;9.84;66.79;99129.56;4823907;29;20047;-89
2022/09/02 01:19:40;;;;;;;2.90;1.50;;;;;;;9.33;67.21;99048.16;4809912;29;20060;-89
2022/09/02 01:22:31;;;;;;;2.35;1.27;;;;;;;9.89;66.98;99125.88;4758711;30;20059;-89
2022/09/02 01:25:31;;;;;;;1.38;1.10;;;;;;;9.57;67.09;99078.66;4791051;29;20050;-87
2022/09/02 01:28:15;;;;;;;2.75;1.23;;;;;;;9.57;67.18;99080.56;4792042;29;20183;-89
2022/09/02 01:30:58;;;;;;;4.60;1.30;;;;;;;9.22;67.20;99019.53;4792104;29;20043;-92
2022/09/02 01:34:10;;;;;;;1.42;1.23;;;;;;;9.78;67.86;99114.41;4807193;29;20142;-89
2022/09/02 01:36:39;;;;;;;4.07;1.58;;;;;;;9.06;68.66;99016.38;4790867;29;20096;-91
2022/09/02 01:44:27;;;;;;;1.50;1.10;;;;;;;9.75;69.93;99120.50;4809780;29;20129;-90
2022/09/02 01:50:12;;;;;;;1.88;1.30;;;;;;;9.70;70.50;99133.47;4808378;29;20516;-90
2022/09/02 01:52:40;;;;;;;2.38;1.40;;;;;;;9.24;69.83;99050.00;4805759;29;20047;-89
2022/09/02 02:00:30;;;;;;;6.57;1.20;;;;;;;9.48;71.92;99135.09;4806816;29;20096;-89
2022/09/02 02:08:20;;;;;;;3.00;1.45;;;;;;;9.00;72.94;99080.31;4808367;29;20095;-89
2022/09/02 02:10:53;;;;;;;;;;;;;;;9.02;73.42;99094.47;4800367;29;20038;-91
2022/09/02 02:15:51;;;;;;;5.18;1.30;;;;;;;8.77;72.46;99087.66;4804680;29;20042;-91
2022/09/02 02:18:18;;;;;;;2.70;1.42;;;;;;;8.76;73.61;99092.31;4821687;29;20513;-91
2022/09/02 02:20:53;;;;;;;2.60;1.27;;;;;;;8.78;73.08;99090.09;4808347;29;20535;-90
2022/09/02 02:23:19;;;;;;;3.88;1.10;;;;;;;8.84;73.78;99104.38;4817978;29;20064;-90
2022/09/02 02:25:50;;;;;;;0.95;0.93;;;;;;;8.72;72.73;99094.03;4857320;29;20141;-90
2022/09/02 02:28:17;;;;;;;0.93;0.90;;;;;;;8.68;72.36;99088.38;4843210;29;20052;-89
2022/09/02 02:30:44;;;;;;;1.73;1.08;;;;;;;8.62;72.48;99089.59;4844125;29;20046;-89
2022/09/02 02:36:20;;;;;;;4.03;1.20;;;;;;;9.04;71.05;99153.03;4844560;29;20591;-89
2022/09/02 02:39:12;;;;;;;1.90;1.20;;;;;;;9.12;71.02;99176.84;4829541;29;20045;-90
2022/09/02 02:44:38;;;;;;;1.50;0.90;;;;;;;8.64;72.23;99106.47;4828893;29;20039;-89
2022/09/02 02:47:07;;;;;;;1.20;1.10;;;;;;;8.81;71.66;99127.63;4838882;29;20129;-91
2022/09/02 02:49:42;;;;;;;2.15;1.00;;;;;;;8.64;71.71;99113.81;4856812;29;20082;-90
2022/09/02 02:52:38;;;;;;;2.75;1.10;;;;;;;9.06;71.94;99166.34;4841865;29;20034;-90
2022/09/02 02:55:05;;;;;;;3.25;1.00;;;;;;;8.79;70.84;99127.13;4841685;29;20511;-90
2022/09/02 03:00:38;;;;;;;2.22;1.08;;;;;;;9.04;71.68;99183.03;4845922;29;20404;-90
2022/09/02 03:03:08;;;;;;;1.13;1.00;;;;;;;9.03;72.26;99186.03;4828960;29;20069;-90
2022/09/02 03:06:00;;;;;;;3.33;1.17;;;;;;;9.08;72.12;99191.41;4893778;23;20519;-90
2022/09/02 03:08:28;;;;;;;1.20;1.10;;;;;;;8.69;72.77;99119.97;4865044;29;20124;-91
2022/09/02 03:11:10;;;;;;;;;;;;;;;9.17;72.83;99184.91;4847927;29;20033;-89
2022/09/02 03:14:31;;;;;;;2.33;1.20;;;;;;;9.24;72.24;99197.28;4862771;29;19923;-91
2022/09/02 03:16:57;;;;;;;1.17;1.05;;;;;;;9.14;71.65;99182.78;4862905;29;20513;-90
2022/09/02 03:19:24;;;;;;;2.45;1.10;;;;;;;9.20;72.14;99178.00;4878912;29;20140;-90
2022/09/02 03:24:22;;;;;;;4.20;1.10;;;;;;;9.36;70.98;99189.38;4877896;29;20049;-91
2022/09/02 03:26:48;;;;;;;2.40;1.27;;;;;;;9.55;70.72;99184.59;4840505;23;20052;-89
2022/09/02 03:29:15;;;;;;;1.65;1.20;;;;;;;8.94;70.02;99099.53;4879759;29;20061;-90
2022/09/02 03:31:44;;;;;;;1.92;1.10;;;;;;;9.11;71.65;99128.06;4879240;29;20041;-91
2022/09/02 03:34:14;;;;;;;1.80;1.45;;;;;;;9.00;70.98;99113.84;4865181;29;20045;-90
2022/09/02 03:36:43;;;;;;;4.72;1.10;;;;;;;9.55;70.13;99200.94;4886424;23;20480;-91
2022/09/02 03:39:52;;;;;;;1.55;1.00;;;;;;;9.55;69.55;99197.41;4891812;29;20051;-88
2022/09/02 03:42:34;;;;;;;3.50;1.25;;;;;;;9.32;70.48;99175.56;4879328;29;20078;-88
2022/09/02 03:45:00;;;;;;;2.40;1.13;;;;;;;9.36;70.17;99182.00;4894569;29;20119;-86
2022/09/02 03:47:29;;;;;;;4.15;1.10;;;;;;;9.23;70.69;99176.59;4893066;29;20085;-90
2022/09/02 03:49:57;;;;;;;4.68;2.83;;;;;;;9.07;70.46;99144.25;4874733;29;20056;-89
2022/09/02 03:52:26;;;;;;;2.25;1.58;;;;;;;9.41;70.79;99208.38;4909711;29;20590;-90
2022/09/02 03:55:43;;;;;;;2.22;1.20;;;;;;;9.54;70.55;99209.47;4889762;29;20531;-89
2022/09/02 03:58:26;;;;;;;1.20;1.05;;;;;;;9.68;70.46;99220.31;4859133;29;20415;-93
2022/09/02 04:00:57;;;;;;;1.40;1.08;;;;;;;9.20;69.09;99134.38;4892458;29;20093;-90
2022/09/02 04:03:30;;;;;;;1.63;1.30;;;;;;;9.32;68.99;99155.66;4887615;29;20037;-90
2022/09/02 04:05:57;;;;;;;2.45;1.15;;;;;;;9.86;67.98;99231.03;4877458;29;20562;-88
2022/09/02 04:08:26;;;;;;;2.78;1.30;;;;;;;9.30;68.11;99128.69;4892721;29;20041;-90
2022/09/02 04:17:41;;;;;;;1.92;0.98;;;;;;;9.56;65.05;99158.91;4860713;29;20105;-88
2022/09/02 04:20:51;;;;;;;2.83;1.20;;;;;;;10.17;66.60;99235.78;4880039;23;20055;-87
2022/09/02 04:23:31;;;;;;;1.65;1.05;;;;;;;9.62;65.01;99133.09;4877256;29;20045;-92
2022/09/02 04:26:01;;;;;;;3.60;1.20;;;;;;;9.77;64.31;99155.69;4864648;29;20064;-88
2022/09/02 04:28:28;;;;;;;2.35;1.13;;;;;;;10.40;64.86;99241.22;4880117;29;20069;-90
2022/09/02 04:30:58;;;;;;;2.85;1.20;;;;;;;10.30;63.77;99247.78;4833081;29;20041;-93
2022/09/02 04:33:25;;;;;;;1.23;0.98;;;;;;;9.95;63.51;99184.69;4867315;29;20049;-89
2022/09/02 04:36:08;;;;;;;;;;;;;;;10.39;63.56;99242.34;4865853;29;20486;-93
2022/09/02 04:38:39;;;;;;;1.77;1.15;;;;;;;9.90;63.20;99163.00;4866003;29;19924;-88
2022/09/02 04:41:30;;;;;;;1.05;0.95;;;;;;;10.09;63.71;99179.16;4864386;29;20049;-88
2022/09/02 04:44:06;;;;;;;8.77;4.13;;;;;;;9.90;63.72;99141.16;4853949;29;20037;-89
2022/09/02 04:46:36;;;;;;;5.13;2.70;;;;;;;10.11;63.73;99213.22;4866423;29;20068;-90
2022/09/02 04:49:07;;;;;;;10.48;4.45;;;;;;;10.08;63.77;99194.72;4884119;29;20065;-92
2022/09/02 04:55:06;;;;;;;2.22;1.75;;;;;;;9.99;64.62;99199.34;4866858;29;20049;-92
2022/09/02 04:57:35;;;;;;;5.70;3.63;;;;;;;10.35;65.19;99250.34;4851932;29;20117;-94
2022/09/02 05:00:27;;;;;;;6.97;1.90;;;;;;;10.44;64.90;99255.88;4875320;29;20045;-93
2022/09/02 05:03:05;;;;;;;2.53;1.50;;;;;;;9.92;64.10;99168.13;4834393;29;20132;-92
2022/09/02 05:06:38;;;;;;;4.38;1.40;;;;;;;10.57;64.31;99257.72;4865640;29;20093;-92
2022/09/02 05:09:07;;;;;;;4.15;1.60;;;;;;;9.99;65.13;99179.41;4853011;29;20049;-93
2022/09/02 05:12:03;;;;;;;4.78;2.13;;;;;;;9.81;66.28;99173.06;4881687;29;20040;-94
2022/09/02 05:15:07;;;;;;;4.07;1.40;;;;;;;10.16;66.89;99242.34;4887447;23;20056;-93
2022/09/02 05:17:45;;;;;;;9.68;5.10;;;;;;;10.08;66.64;99246.63;4878435;29;20080;-92
2022/09/02 05:20:38;;;;;;;21.73;12.18;;;;;;;10.28;66.20;99263.66;4866283;29;20037;-93
2022/09/02 05:23:36;;;;;;;2.20;1.45;;;;;;;9.83;66.42;99212.59;4880842;29;20109;-88
2022/09/02 05:26:04;;;;;;;8.82;1.73;;;;;;;10.17;66.54;99256.81;4851436;29;20044;-89
2022/09/02 05:28:30;;;;;;;9.70;2.40;;;;;;;9.98;65.77;99238.69;4880738;29;20041;-89
2022/09/02 05:31:15;;;;;;;6.30;3.38;;;;;;;10.39;65.69;99275.94;4881132;29;20093;-90
2022/09/02 05:33:43;;;;;;;2.75;1.50;;;;;;;10.24;64.82;99249.00;4875695;29;20435;-89
2022/09/02 05:37:00;;;;;;;3.05;1.30;;;;;;;10.44;64.88;99278.53;4833246;29;20049;-91
2022/09/02 05:39:44;;;;;;;17.63;7.90;;;;;;;10.18;64.38;99223.72;4832092;29;20553;-92
2022/09/02 05:42:10;;;;;;;7.13;2.92;;;;;;;10.51;64.60;99275.38;4845832;29;20050;-91
2022/09/02 05:44:37;;;;;;;10.90;5.93;;;;;;;10.21;65.74;99235.94;4844353;29;20044;-90
2022/09/02 05:47:11;;;;;;;2.65;1.35;;;;;;;10.24;64.33;99246.25;4863834;29;20059;-92
2022/09/02 05:49:38;;;;;;;4.15;0.93;;;;;;;10.26;64.52;99285.81;4852247;29;20037;-91
2022/09/02 05:52:11;;;;;;;2.22;1.30;;;;;;;10.17;65.22;99290.41;4872278;29;20053;-90
2022/09/02 05:54:50;;;;;;;17.88;8.90;;;;;;;9.73;65.09;99228.38;4848351;29;20099;-91
2022/09/02 05:57:20;;;;;;;7.85;3.42;;;;;;;10.01;64.72;99273.56;4847989;29;20075;-91
2022/09/02 06:00:38;;;;;;;6.47;1.60;;;;;;;10.32;65.01;99308.34;4883074;29;20065;-90
2022/09/02 06:03:20;;;;;;;9.82;5.40;;;;;;;10.17;65.61;99279.47;4869241;29;20041;-91
2022/09/02 06:09:22;;;;;;;13.07;5.90;;;;;;;10.56;63.76;99283.41;4880644;29;20068;-90
2022/09/02 06:12:04;;;;;;;6.95;2.10;;;;;;;10.57;62.21;99253.06;4896800;29;20048;-90
2022/09/02 06:14:53;;;;;;;5.50;2.88;;;;;;;11.11;63.36;99315.03;4867998;29;20049;-95
2022/09/02 06:17:21;;;;;;;7.20;1.40;;;;;;;10.39;61.96;99250.53;4838069;29;20107;-92
2022/09/02 06:19:56;;;;;;;2.42;1.60;;;;;;;10.46;62.38;99262.66;4801564;29;20034;-91
2022/09/02 06:22:25;;;;;;;1.25;1.00;;;;;;;10.54;62.29;99293.88;4831245;29;20070;-91
2022/09/02 06:24:53;;;;;;;3.53;1.05;;;;;;;10.39;60.61;99270.47;4867899;23;20037;-90
2022/09/02 06:27:50;;;;;;;;;;;;;;;11.05;61.90;99334.31;5082141;23;20056;-93
2022/09/02 06:30:20;;;;;;;2.70;1.30;;;;;;;11.05;60.63;99289.75;4884280;29;19915;-93
2022/09/02 06:32:47;;;;;;;2.55;0.90;;;;;;;11.16;58.44;99296.56;4899933;29;20041;-90
2022/09/02 06:39:28;;;;;;;4.70;1.10;;;;;;;11.33;57.20;99316.91;4886911;29;20091;-93
2022/09/02 06:42:22;;;;;;;1.58;0.90;;;;;;;11.40;56.43;99336.41;4880491;29;20308;-92
2022/09/02 06:45:08;;;;;;;5.28;1.00;;;;;;;11.36;57.22;99314.34;4896175;29;20097;-92
2022/09/02 06:47:42;;;;;;;3.75;1.10;;;;;;;11.68;55.94;99356.09;4852009;29;20049;-92
2022/09/02 06:50:15;;;;;;;5.40;1.20;;;;;;;11.13;56.63;99280.78;4867371;29;20044;-92
2022/09/02 06:53:35;;;;;;;4.55;1.10;;;;;;;11.73;57.43;99361.44;4864783;29;20068;-93
2022/09/02 06:57:13;;;;;;;1.10;1.02;;;;;;;11.73;57.50;99369.66;4875224;29;20056;-93
2022/09/02 06:59:41;;;;;;;1.15;1.00;;;;;;;11.71;57.65;99372.69;4867110;29;20045;-92
2022/09/02 07:02:25;;;;;;;;;;;;;;;11.72;58.13;99376.22;4890309;29;20089;-91
2022/09/02 07:07:48;;;;;;;3.30;1.02;;;;;;;11.19;57.63;99338.88;4867899;29;20021;-94
2022/09/02 07:10:15;;;;;;;1.15;0.77;;;;;;;11.31;57.87;99350.03;4869264;29;20102;-92
2022/09/02 07:13:18;;;;;;;5.60;0.70;;;;;;;11.60;57.80;99373.31;4885259;29;20108;-96
2022/09/02 07:16:10;;;;;;;7.75;1.10;;;;;;;11.43;58.38;99385.84;4886034;29;20056;-92
2022/09/02 07:18:40;;;;;;;8.70;1.10;;;;;;;10.94;60.06;99330.25;4869466;29;20451;-91
2022/09/02 07:21:13;;;;;;;1.88;0.80;;;;;;;10.77;59.59;99341.13;4859476;29;20045;-93
2022/09/02 07:23:41;;;;;;;6.38;0.90;;;;;;;10.65;60.28;99351.81;4869551;29;20071;-93
2022/09/02 07:26:15;;;;;;;1.95;0.90;;;;;;;11.00;62.01;99391.13;4856819;29;20161;-91
2022/09/02 07:28:56;;;;;;;7.90;1.00;;;;;;;10.80;58.78;99357.69;4842246;29;20075;-91
2022/09/02 07:31:23;;;;;;;5.35;1.15;;;;;;;10.55;59.54;99287.28;4870033;29;20037;-90
2022/09/02 07:33:50;;;;;;;6.45;1.10;;;;;;;11.15;58.96;99379.75;4839230;29;20101;-94
2022/09/02 07:36:47;;;;;;;2.85;1.00;;;;;;;11.40;57.30;99411.09;4880141;29;20093;-91
2022/09/02 07:39:18;;;;;;;3.95;1.20;;;;;;;11.53;56.58;99412.91;4857817;29;20191;-92
2022/09/02 07:42:01;;;;;;;1.85;1.00;;;;;;;11.69;56.62;99402.34;4851627;29;20049;-91
2022/09/02 07:44:27;;;;;;;8.13;1.27;;;;;;;11.60;55.74;99385.06;4862657;29;20128;-90
2022/09/02 07:46:54;;;;;;;1.17;0.90;;;;;;;11.68;55.76;99386.22;4915389;29;20408;-90
2022/09/02 07:49:21;;;;;;;1.60;0.80;;;;;;;11.45;54.91;99337.03;4899946;29;20048;-92
2022/09/02 07:52:40;;;;;;;1.15;0.82;;;;;;;11.94;53.30;99408.22;4901606;29;20048;-92
2022/09/02 07:55:06;;;;;;;0.98;0.80;;;;;;;11.94;52.91;99391.78;4907183;23;20097;-91
2022/09/02 07:57:32;;;;;;;3.42;1.05;;;;;;;12.21;52.10;99409.84;4879952;29;20040;-94
2022/09/02 08:00:54;;;;;;;2.75;0.93;;;;;;;12.42;51.89;99404.56;4849043;29;20072;-91
2022/09/02 08:03:46;;;;;;;5.10;1.10;;;;;;;12.53;52.06;99414.06;4851978;29;20052;-92
2022/09/02 08:06:27;;;;;;;1.02;0.88;;;;;;;11.76;51.55;99293.13;4879404;29;20500;-92
2022/09/02 08:08:54;;;;;;;2.97;0.85;;;;;;;12.39;52.19;99396.97;4860091;29;20593;-93
2022/09/02 08:11:45;;;;;;;4.65;1.60;;;;;;;11.80;53.04;99344.53;4882476;29;20606;-92
2022/09/02 08:14:16;;;;;;;3.35;2.13;;;;;;;12.00;53.78;99406.94;4882560;29;20056;-92
2022/09/02 08:17:00;;;;;;;11.02;8.75;;;;;;;11.44;53.76;99335.44;4871750;23;20140;-92
2022/09/02 08:19:49;;;;;;;8.38;1.45;;;;;;;11.45;54.39;99333.50;4850916;29;20053;-91
2022/09/02 08:22:50;;;;;;;3.33;1.17;;;;;;;11.47;53.18;99339.47;4834505;29;20055;-90
2022/09/02 08:25:17;;;;;;;4.15;1.63;;;;;;;11.58;52.97;99334.50;4820508;29;20057;-91
2022/09/02 08:27:44;;;;;;;5.57;2.42;;;;;;;12.07;52.99;99373.59;4820314;29;20045;-89
2022/09/02 08:33:30;;;;;;;11.43;2.28;;;;;;;12.47;50.61;99418.09;4853220;29;20041;-92
2022/09/02 08:36:08;;;;;;;4.13;2.40;;;;;;;12.74;51.71;99441.63;4807062;29;20057;-91
2022/09/02 08:39:30;;;;;;;5.53;1.15;;;;;;;12.84;50.85;99438.53;4840136;29;20045;-90
2022/09/02 08:42:22;;;;;;;10.40;4.20;;;;;;;12.75;51.26;99453.41;4827143;29;20052;-91
2022/09/02 08:44:54;;;;;;;17.33;5.03;;;;;;;12.51;52.62;99451.97;4854707;29;20050;-91
2022/09/02 08:47:58;;;;;;;9.25;1.80;;;;;;;11.89;58.13;99414.66;4858203;29;20113;-91
2022/09/02 08:50:25;;;;;;;22.67;8.55;;;;;;;11.65;59.44;99436.94;4839523;29;20563;-91
2022/09/02 08:52:54;;;;;;;;;;;;;;;11.79;61.03;99482.56;4871483;29;20057;-92
2022/09/02 08:55:25;;;;;;;3.03;1.15;;;;;;;11.52;60.35;99441.44;4852928;29;20417;-89
2022/09/02 08:58:21;;;;;;;4.32;1.27;;;;;;;11.60;62.23;99459.00;4853522;29;20057;-90
2022/09/02 09:01:13;;;;;;;7.80;2.42;;;;;;;11.84;61.70;99496.13;4841661;29;20101;-95
2022/09/02 09:04:14;;;;;;;33.05;5.78;;;;;;;11.62;62.66;99483.31;4837238;29;20562;-89
2022/09/02 09:07:05;;;;;;;46.70;10.30;;;;;;;11.69;62.53;99492.72;4852506;29;20113;-89
2022/09/02 09:10:33;;;;;;;11.77;4.38;;;;;;;11.83;62.03;99484.38;4839107;29;20042;-88
2022/09/02 09:16:57;;;;;;;2.00;1.10;;;;;;;12.40;59.56;99492.59;4803574;29;20059;-90
2022/09/02 09:20:02;;;;;;;6.95;1.88;;;;;;;12.60;57.63;99477.44;4810408;29;20076;-90
2022/09/02 09:22:41;;;;;;;7.70;2.13;;;;;;;12.91;55.63;99499.25;4803540;29;20107;-91
2022/09/02 09:25:33;;;;;;;11.18;5.03;;;;;;;13.09;54.61;99504.72;4827481;29;20058;-90
2022/09/02 09:28:09;;;;;;;4.32;1.48;;;;;;;12.90;53.78;99461.13;4816761;29;20058;-88
2022/09/02 09:31:01;;;;;;;2.20;1.20;;;;;;;13.33;53.69;99499.53;4811374;29;20038;-90
2022/09/02 09:33:33;;;;;;;9.85;1.40;;;;;;;13.19;52.31;99471.44;4822828;29;20049;-89
2022/09/02 09:36:01;;;;;;;1.75;1.10;;;;;;;13.13;52.48;99464.50;4828785;29;20585;-92
2022/09/02 09:38:46;;;;;;;3.08;1.20;;;;;;;13.15;52.14;99500.66;4804914;29;20055;-91
2022/09/02 09:41:19;;;;;;;4.38;1.08;;;;;;;12.98;52.50;99471.31;4822184;24;20453;-93
2022/09/02 09:43:45;;;;;;;6.40;1.40;;;;;;;13.29;52.31;99504.06;4873553;24;20408;-92
2022/09/02 09:46:34;;;;;;;6.03;1.27;;;;;;;13.44;51.71;99508.22;4871477;29;20037;-92
2022/09/02 09:49:28;;;;;;;6.55;1.50;;;;;;;13.37;51.50;99511.44;4871038;29;20033;-93
2022/09/02 09:52:01;;;;;;;13.30;1.70;;;;;;;13.11;51.78;99447.53;4860200;29;20144;-91
2022/09/02 09:54:27;;;;;;;6.10;1.38;;;;;;;13.38;50.67;99493.88;4890144;29;20050;-92
2022/09/02 09:57:28;;;;;;;5.85;1.35;;;;;;;13.48;49.82;99519.38;4841466;29;20034;-92
2022/09/02 09:59:55;;;;;;;5.20;1.65;;;;;;;13.22;50.04;99454.31;4888009;29;20057;-90
2022/09/02 10:02:27;;;;;;;1.45;0.82;;;;;;;13.18;48.71;99453.34;4835739;29;20042;-90
2022/09/02 10:05:19;;;;;;;12.27;5.97;;;;;;;13.35;48.30;99482.72;4849522;29;20052;-92
2022/09/02 10:07:58;;;;;;;6.20;2.35;;;;;;;13.03;48.58;99440.13;4850235;29;20042;-90
2022/09/02 10:11:27;;;;;;;2.83;1.10;;;;;;;13.48;47.33;99530.34;4864389;29;20137;-91
2022/09/02 10:13:59;;;;;;;5.70;2.15;;;;;;;13.24;47.66;99492.41;4848583;29;20052;-91
2022/09/02 10:16:31;;;;;;;3.05;1.40;;;;;;;13.38;46.80;99513.09;4835453;29;20584;-90
2022/09/02 10:19:29;;;;;;;7.88;1.35;;;;;;;13.49;47.71;99515.47;4851064;29;20060;-91
2022/09/02 10:22:26;;;;;;;2.50;1.23;;;;;;;13.42;47.02;99513.25;4868443;29;20045;-90
2022/09/02 10:25:18;;;;;;;6.30;1.83;;;;;;;13.57;46.50;99531.13;4848997;29;20077;-91
2022/09/02 10:28:06;;;;;;;7.43;1.85;;;;;;;13.63;46.57;99532.56;4838716;29;20069;-90
2022/09/02 10:31:04;;;;;;;14.15;1.38;;;;;;;13.45;46.18;99506.28;4848983;29;20102;-91
2022/09/02 10:36:45;;;;;;;10.52;3.78;;;;;;;13.28;46.66;99491.47;4854044;29;20049;-91
2022/09/02 10:40:08;;;;;;;3.45;1.20;;;;;;;13.83;46.34;99553.81;4887212;29;20052;-91
2022/09/02 10:43:07;;;;;;;3.33;1.00;;;;;;;13.81;45.64;99564.34;4869722;29;20045;-93
2022/09/02 10:45:49;;;;;;;9.82;1.20;;;;;;;13.49;46.22;99494.31;4850647;29;20065;-91
2022/09/02 10:48:40;;;;;;;4.82;1.15;;;;;;;13.96;45.37;99554.75;4835748;29;20464;-91
2022/09/02 10:51:43;;;;;;;8.82;1.10;;;;;;;13.91;46.13;99565.94;4850922;29;20053;-90
2022/09/02 10:54:22;;;;;;;5.50;2.70;;;;;;;13.74;49.05;99572.28;4867932;29;20121;-91
2022/09/02 10:57:12;;;;;;;4.63;1.30;;;;;;;13.38;49.90;99554.28;4852480;29;20087;-90
2022/09/02 11:00:08;;;;;;;0.77;0.77;;;;;;;13.22;50.22;99566.88;4874095;29;20077;-91
2022/09/02 11:03:12;;;;;;;4.57;1.20;;;;;;;13.14;50.06;99552.03;4811685;29;20060;-88
2022/09/02 11:06:06;;;;;;;3.05;1.10;;;;;;;13.24;51.82;99597.56;4829691;29;20066;-89
2022/09/02 11:08:52;;;;;;;6.13;1.30;;;;;;;12.93;54.00;99600.44;4860356;23;20046;-91
2022/09/02 11:11:54;;;;;;;3.60;1.35;;;;;;;12.83;56.90;99600.75;4854767;29;20052;-92
2022/09/02 11:17:39;;;;;;;7.72;2.72;;;;;;;12.60;56.89;99592.63;4795949;29;20142;-91
2022/09/02 11:20:45;;;;;;;10.15;2.97;;;;;;;12.34;57.16;99584.34;4810710;29;20051;-91
2022/09/02 11:27:23;;;;;;;3.88;1.73;;;;;;;12.53;55.89;99561.34;4796594;30;20047;-92
2022/09/02 11:30:11;;;;;;;;;;;;;;;13.13;54.72;99613.53;4799455;29;20047;-92
2022/09/02 11:32:59;;;;;;;2.25;1.20;;;;;;;13.30;53.56;99626.47;4851812;24;19927;-90
2022/09/02 11:35:31;;;;;;;1.33;0.80;;;;;;;13.00;53.94;99523.13;4872926;29;20052;-90
2022/09/02 11:38:21;;;;;;;3.97;1.20;;;;;;;13.71;52.27;99630.66;4916127;29;20046;-90
2022/09/02 11:41:34;;;;;;;3.08;1.25;;;;;;;13.94;52.55;99630.41;4881573;29;20112;-88
2022/09/02 11:44:40;;;;;;;7.03;1.13;;;;;;;14.04;51.46;99638.34;4864552;29;20052;-92
2022/09/02 11:47:25;;;;;;;30.35;13.70;;;;;;;13.88;51.62;99637.25;4880338;29;20055;-94
2022/09/02 11:53:56;;;;;;;4.95;1.10;;;;;;;13.57;51.79;99614.31;4879096;29;20577;-89
2022/09/02 11:57:07;;;;;;;1.92;0.88;;;;;;;13.45;49.93;99577.69;4888864;29;20045;-90
2022/09/02 11:59:59;;;;;;;1.77;1.05;;;;;;;13.71;49.26;99627.91;4861628;29;20135;-94
2022/09/02 12:03:16;;;;;;;9.35;1.52;;;;;;;13.64;49.24;99630.31;4859746;29;20045;-92
2022/09/02 12:09:43;;;;;;;3.50;1.02;;;;;;;14.05;48.70;99599.50;4870505;29;20061;-93
2022/09/02 12:12:37;;;;;;;5.78;1.63;;;;;;;14.47;48.68;99635.41;4885429;29;20056;-89
2022/09/02 12:15:19;;;;;;;3.22;1.70;;;;;;;14.30;49.52;99607.97;4870868;29;20053;-89
2022/09/02 12:17:48;;;;;;;7.28;1.15;;;;;;;14.56;49.71;99649.94;4870208;29;20106;-92
2022/09/02 12:20:52;;;;;;;8.93;1.33;;;;;;;14.36;49.57;99645.16;4920107;23;20045;-89
2022/09/02 12:23:55;;;;;;;9.93;1.70;;;;;;;14.68;50.49;99646.50;4864322;29;20049;-90
2022/09/02 12:26:37;;;;;;;3.17;1.33;;;;;;;14.82;49.43;99635.22;4862484;29;20060;-93
2022/09/02 12:30:08;;;;;;;5.55;1.23;;;;;;;14.65;49.96;99655.41;4926043;23;20121;-90
2022/09/02 12:37:13;;;;;;;;;;;;;;;15.24;48.33;99649.03;4869952;29;20081;-89
2022/09/02 12:39:52;;;;;;;7.13;1.40;;;;;;;15.31;47.51;99612.69;4940654;24;20014;-92
2022/09/02 13:05:30;;;;;;;6.18;1.50;;;;;;;15.22;47.74;99632.84;4928077;23;20059;-89
2022/09/02 13:16:10;;;;;;;1.17;0.95;;;;;;;15.69;44.73;99640.06;4869039;29;20047;-91
2022/09/02 13:21:41;;;;;;;1.80;1.00;;;;;;;15.48;42.41;99651.91;4865792;29;20064;-89
2022/09/02 13:32:26;;;;;;;7.05;1.30;;;;;;;15.15;43.31;99675.84;4887580;29;20051;-90
2022/09/02 13:37:43;;;;;;;3.97;0.90;;;;;;;14.54;43.66;99615.66;4883541;24;20123;-90
2022/09/02 13:40:26;;;;;;;6.88;1.38;;;;;;;14.92;43.86;99687.16;4843951;29;20049;-91
2022/09/02 13:43:14;;;;;;;4.32;1.20;;;;;;;14.78;43.79;99686.59;4887512;23;20112;-92
2022/09/02 13:45:43;;;;;;;6.07;0.98;;;;;;;14.71;45.75;99711.06;4870440;29;20045;-90
2022/09/02 13:51:13;;;;;;;29.42;2.92;;;;;;;13.72;53.96;99643.25;4981169;24;20053;-91
2022/09/02 13:57:58;;;;;;;3.33;1.00;;;;;;;14.23;55.67;99721.22;4862409;29;20053;-90
2022/09/02 14:00:38;;;;;;;28.80;3.05;;;;;;;14.04;54.11;99661.13;4882900;23;20148;-90
2022/09/02 14:03:31;;;;;;;7.70;1.38;;;;;;;14.08;53.68;99721.75;4869774;24;20598;-91
2022/09/02 14:06:48;;;;;;;2.20;0.90;;;;;;;13.38;53.31;99666.06;4865948;29;20052;-90
2022/09/02 14:09:41;;;;;;;3.63;1.38;;;;;;;13.92;54.64;99729.69;4859643;29;20578;-90
2022/09/02 14:12:56;;;;;;;6.70;1.60;;;;;;;13.39;52.34;99662.16;4874875;29;20163;-91
2022/09/02 14:21:57;;;;;;;14.15;2.00;;;;;;;13.50;51.31;99629.69;3987038;23;20144;-91
2022/09/02 14:24:30;;;;;;;10.52;1.50;;;;;;;13.74;49.43;99667.63;4851312;29;20460;-90
2022/09/02 14:27:23;;;;;;;5.07;1.98;;;;;;;14.24;49.51;99730.28;4853488;29;20041;-91
2022/09/02 14:29:56;;;;;;;7.55;1.63;;;;;;;14.06;47.65;99708.31;4865074;29;20071;-90
2022/09/02 14:33:39;;;;;;;3.85;1.33;;;;;;;14.22;49.14;99719.59;4840764;29;20455;-90
2022/09/02 14:36:24;;;;;;;2.53;1.20;;;;;;;14.32;47.64;99726.72;4847748;24;20093;-89
2022/09/02 14:39:25;;;;;;;2.88;1.10;;;;;;;14.10;47.87;99725.78;4809015;29;20058;-92
2022/09/02 14:42:05;;;;;;;2.85;1.13;;;;;;;13.65;47.61;99675.09;4807293;29;20054;-88
2022/09/02 14:45:24;;;;;;;5.22;1.83;;;;;;;13.83;48.17;99731.63;4840099;29;20034;-89
2022/09/02 14:48:22;;;;;;;8.30;1.67;;;;;;;13.69;48.75;99742.78;4834388;29;20642;-92
2022/09/02 14:51:06;;;;;;;8.57;1.80;;;;;;;13.52;48.82;99709.84;4824087;29;20069;-91
2022/09/02 14:53:36;;;;;;;7.35;3.17;;;;;;;13.38;50.29;99708.06;4825309;29;20039;-88
2022/09/02 14:56:06;;;;;;;6.15;1.80;;;;;;;13.33;53.33;99743.88;4823790;29;20050;-86
2022/09/02 14:58:41;;;;;;;3.65;1.33;;;;;;;13.11;57.94;99777.75;4819548;29;20042;-91
2022/09/02 15:01:12;;;;;;;2.78;1.45;;;;;;;12.20;59.79;99713.28;4812233;29;20038;-90
2022/09/02 15:03:39;;;;;;;2.95;1.15;;;;;;;12.29;61.88;99768.16;4823274;29;20131;-92
2022/09/02 15:06:11;;;;;;;4.35;1.27;;;;;;;12.17;61.37;99746.00;4818443;29;20050;-90
2022/09/02 15:08:38;;;;;;;3.15;1.13;;;;;;;12.04;60.75;99703.84;4813728;29;20043;-91
2022/09/02 15:11:05;;;;;;;2.75;1.42;;;;;;;11.86;60.24;99691.97;4810369;29;20038;-93
2022/09/02 15:13:47;;;;;;;5.72;1.20;;;;;;;12.05;61.22;99710.91;4812991;29;20046;-90
2022/09/02 15:16:28;;;;;;;6.38;1.40;;;;;;;11.92;60.37;99660.59;4813299;29;20051;-94
2022/09/02 15:19:09;;;;;;;7.18;1.48;;;;;;;12.51;60.82;99736.34;4791958;29;20198;-93
2022/09/02 15:22:42;;;;;;;7.75;1.40;;;;;;;12.86;59.59;99762.00;4827111;29;20057;-92
2022/09/02 15:25:10;;;;;;;3.03;1.30;;;;;;;12.19;59.13;99665.06;4882706;23;20035;-92